createdAt,value
2023-08-11T00:02:22.232Z,7.00
2023-08-11T00:04:51.169Z,8.00
2023-08-11T00:07:18.780Z,7.00
2023-08-11T00:09:46.665Z,9.00
2023-08-11T00:12:14.304Z,6.75
2023-08-11T00:14:41.993Z,4.00
2023-08-11T00:17:10.285Z,4.00
2023-08-11T00:19:37.901Z,3.50
2023-08-11T00:22:07.249Z,4.00
2023-08-11T00:24:34.868Z,7.00
2023-08-11T00:27:02.979Z,6.00
2023-08-11T00:29:31.861Z,7.00
2023-08-11T00:31:59.812Z,5.75
2023-08-11T00:34:27.465Z,7.50
2023-08-11T00:36:56.323Z,6.50
2023-08-11T00:39:24.548Z,6.00
2023-08-11T00:41:52.478Z,6.25
2023-08-11T00:44:20.092Z,7.00
2023-08-11T00:46:48.841Z,7.00
2023-08-11T00:49:16.452Z,7.00
2023-08-11T00:51:44.043Z,6.50
2023-08-11T00:54:12.024Z,9.00
2023-08-11T00:56:43.187Z,7.00
2023-08-11T00:59:11.146Z,6.00
2023-08-11T01:01:38.810Z,5.50
2023-08-11T01:04:08.306Z,3.00
2023-08-11T01:06:36.031Z,6.00
2023-08-11T01:09:04.399Z,7.00
2023-08-11T01:11:31.965Z,6.00
2023-08-11T01:14:00.461Z,4.50
2023-08-11T01:16:28.497Z,6.50
2023-08-11T01:18:56.150Z,6.00
2023-08-11T01:21:24.001Z,5.00
2023-08-11T01:23:51.574Z,5.50
2023-08-11T01:26:19.148Z,7.00
2023-08-11T01:28:48.469Z,6.00
2023-08-11T01:31:16.099Z,5.00
2023-08-11T01:33:43.677Z,4.50
2023-08-11T01:36:11.249Z,4.50
2023-08-11T01:38:38.869Z,4.00
2023-08-11T01:41:07.772Z,7.00
2023-08-11T01:43:35.385Z,6.25
2023-08-11T01:46:03.072Z,7.50
2023-08-11T01:48:30.683Z,3.50
2023-08-11T01:50:58.251Z,6.50
2023-08-11T01:53:25.919Z,4.00
2023-08-11T01:55:53.513Z,6.00
2023-08-11T01:58:21.556Z,4.00
2023-08-11T02:00:49.187Z,8.00
2023-08-11T02:03:16.809Z,4.00
2023-08-11T02:05:45.197Z,4.00
2023-08-11T02:08:18.684Z,6.00
2023-08-11T02:10:47.230Z,6.00
2023-08-11T02:13:14.893Z,6.50
2023-08-11T02:15:42.556Z,4.00
2023-08-11T02:18:10.738Z,6.00
2023-08-11T02:20:38.786Z,5.00
2023-08-11T02:23:06.415Z,6.00
2023-08-11T02:25:35.056Z,6.50
2023-08-11T02:28:02.832Z,9.00
2023-08-11T02:30:31.551Z,8.50
2023-08-11T02:32:59.161Z,7.50
2023-08-11T02:35:26.743Z,8.00
2023-08-11T02:37:54.655Z,4.00
2023-08-11T02:40:22.270Z,5.50
2023-08-11T02:42:50.322Z,7.00
2023-08-11T02:45:17.955Z,6.00
2023-08-11T02:47:45.559Z,6.00
2023-08-11T02:50:14.472Z,4.00
2023-08-11T02:52:42.283Z,6.00
2023-08-11T02:55:10.212Z,7.00
2023-08-11T02:57:38.105Z,5.50
2023-08-11T03:00:09.470Z,4.50
2023-08-11T03:02:37.105Z,6.00
2023-08-11T03:05:05.166Z,2.00
2023-08-11T03:07:33.272Z,6.50
2023-08-11T03:10:00.827Z,3.50
2023-08-11T03:12:29.052Z,6.00
2023-08-11T03:14:56.666Z,7.00
2023-08-11T03:17:24.325Z,6.00
2023-08-11T03:19:52.914Z,5.00
2023-08-11T03:22:21.039Z,8.00
2023-08-11T03:24:48.619Z,5.50
2023-08-11T03:27:17.443Z,6.00
2023-08-11T03:29:45.045Z,5.50
2023-08-11T03:32:12.759Z,5.00
2023-08-11T03:34:40.342Z,6.00
2023-08-11T03:37:08.163Z,6.00
2023-08-11T03:39:35.733Z,4.50
2023-08-11T03:42:03.310Z,6.00
2023-08-11T03:44:31.135Z,7.00
2023-08-11T03:46:58.710Z,3.75
2023-08-11T03:49:26.789Z,6.00
2023-08-11T03:51:54.494Z,2.00
2023-08-11T03:54:29.023Z,6.25
2023-08-11T03:57:08.087Z,4.00
2023-08-11T03:59:35.687Z,6.00
2023-08-11T04:02:03.497Z,4.50
2023-08-11T04:04:31.127Z,4.00
2023-08-11T04:06:58.688Z,4.00
2023-08-11T04:09:26.797Z,3.50
2023-08-11T04:11:54.428Z,3.00
2023-08-11T04:14:22.010Z,5.50
2023-08-11T04:16:49.958Z,3.00
2023-08-11T04:19:17.600Z,4.50
2023-08-11T04:21:45.226Z,5.00
2023-08-11T04:24:12.836Z,4.50
2023-08-11T04:26:40.577Z,3.00
2023-08-11T04:29:08.221Z,5.50
2023-08-11T04:31:36.162Z,6.25
2023-08-11T04:34:05.279Z,4.00
2023-08-11T04:36:33.515Z,4.00
2023-08-11T04:39:01.191Z,6.00
2023-08-11T04:41:28.830Z,4.00
2023-08-11T04:43:56.918Z,6.00
2023-08-11T04:46:24.705Z,5.00
2023-08-11T04:48:52.355Z,7.00
2023-08-11T04:51:20.028Z,4.00
2023-08-11T04:53:48.024Z,9.00
2023-08-11T04:56:15.682Z,7.00
2023-08-11T04:58:43.258Z,7.50
2023-08-11T05:01:10.886Z,4.00
2023-08-11T05:03:38.633Z,6.50
2023-08-11T05:06:07.137Z,3.75
2023-08-11T05:08:34.902Z,5.00
2023-08-11T05:11:02.682Z,7.00
2023-08-11T05:13:30.325Z,4.00
2023-08-11T05:15:58.427Z,6.00
2023-08-11T05:18:31.928Z,4.00
2023-08-11T05:21:06.921Z,3.75
2023-08-11T05:23:34.711Z,6.00
2023-08-11T05:26:02.382Z,3.00
2023-08-11T05:28:30.041Z,7.00
2023-08-11T05:30:57.854Z,9.00
2023-08-11T05:33:26.186Z,7.00
2023-08-11T05:35:53.791Z,6.75
2023-08-11T05:38:21.598Z,7.00
2023-08-11T05:40:49.215Z,7.00
2023-08-11T05:43:16.853Z,5.60
2023-08-11T05:45:44.878Z,5.00
2023-08-11T05:48:12.600Z,4.00
2023-08-11T05:50:40.232Z,7.80
2023-08-11T05:53:07.946Z,7.00
2023-08-11T05:55:35.653Z,7.00
2023-08-11T05:58:04.851Z,3.40
2023-08-11T06:00:32.812Z,4.00
2023-08-11T06:03:00.510Z,6.00
2023-08-11T06:05:28.288Z,5.60
2023-08-11T06:08:05.768Z,6.20
2023-08-11T06:10:34.837Z,6.00
2023-08-11T06:13:02.512Z,3.00
2023-08-11T06:15:31.560Z,4.00
2023-08-11T06:17:59.407Z,5.20
2023-08-11T06:20:40.333Z,5.40
2023-08-11T06:23:09.153Z,4.40
2023-08-11T06:25:36.942Z,4.00
2023-08-11T06:28:04.739Z,4.40
2023-08-11T06:30:32.498Z,6.00
2023-08-11T06:33:00.284Z,7.00
2023-08-11T06:35:28.149Z,6.80
2023-08-11T06:37:55.841Z,6.00
2023-08-11T06:40:23.659Z,5.60
2023-08-11T06:42:51.372Z,5.20
2023-08-11T06:45:19.006Z,4.00
2023-08-11T06:47:47.099Z,6.00
2023-08-11T06:50:14.876Z,4.00
2023-08-11T06:52:42.607Z,3.20
2023-08-11T06:55:10.457Z,3.00
2023-08-11T06:57:38.315Z,4.00
2023-08-11T07:00:08.550Z,4.00
2023-08-11T07:02:36.453Z,2.40
2023-08-11T07:05:04.298Z,4.00
2023-08-11T07:07:32.117Z,4.00
2023-08-11T07:10:03.772Z,4.00
2023-08-11T07:12:34.925Z,4.00
2023-08-11T07:15:02.690Z,2.00
2023-08-11T07:17:30.372Z,2.00
2023-08-11T07:19:58.156Z,2.00
2023-08-11T07:22:26.233Z,4.00
2023-08-11T07:24:54.528Z,4.00
2023-08-11T07:27:22.259Z,3.20
2023-08-11T07:29:50.096Z,3.60
2023-08-11T07:32:17.833Z,4.00
2023-08-11T07:34:45.516Z,2.00
2023-08-11T07:37:13.865Z,2.40
2023-08-11T07:39:41.547Z,4.00
2023-08-11T07:42:11.933Z,4.00
2023-08-11T07:44:40.050Z,5.00
2023-08-11T07:47:08.561Z,4.60
2023-08-11T07:49:37.179Z,2.00
2023-08-11T07:52:05.030Z,5.00
2023-08-11T07:54:32.793Z,2.00
2023-08-11T07:57:00.711Z,4.00
2023-08-11T07:59:28.603Z,4.00
2023-08-11T08:01:56.628Z,3.20
2023-08-11T08:04:24.656Z,5.00
2023-08-11T08:06:52.880Z,4.00
2023-08-11T08:09:20.705Z,2.00
2023-08-11T08:11:48.967Z,4.00
2023-08-11T08:14:16.833Z,4.00
2023-08-11T08:16:46.185Z,2.00
2023-08-11T08:19:15.466Z,3.80
2023-08-11T08:21:43.846Z,2.20
2023-08-11T08:24:11.609Z,4.00
2023-08-11T08:26:39.472Z,2.00
2023-08-11T08:29:07.670Z,4.80
2023-08-11T08:31:35.467Z,2.00
2023-08-11T08:34:04.044Z,3.00
2023-08-11T08:36:31.971Z,2.60
2023-08-11T08:39:00.291Z,2.00
2023-08-11T08:41:31.715Z,3.00
2023-08-11T08:43:59.396Z,2.00
2023-08-11T08:46:27.270Z,2.00
2023-08-11T08:48:55.629Z,2.00
2023-08-11T08:51:23.524Z,2.00
2023-08-11T08:53:51.226Z,5.00
2023-08-11T08:56:19.035Z,1.80
2023-08-11T08:58:46.913Z,2.80
2023-08-11T09:01:14.844Z,1.40
2023-08-11T09:03:43.435Z,2.00
2023-08-11T09:06:11.572Z,3.00
2023-08-11T09:08:39.758Z,3.40
2023-08-11T09:11:08.966Z,5.00
2023-08-11T09:13:38.001Z,3.00
2023-08-11T09:16:05.743Z,2.60
2023-08-11T09:18:33.686Z,2.60
2023-08-11T09:21:01.660Z,3.00
2023-08-11T09:23:29.509Z,2.60
2023-08-11T09:25:57.342Z,3.00
2023-08-11T09:28:25.271Z,2.00
2023-08-11T09:30:53.060Z,1.00
2023-08-11T09:33:21.426Z,1.00
2023-08-11T09:35:49.596Z,2.60
2023-08-11T09:38:17.429Z,3.20
2023-08-11T09:40:46.143Z,2.80
2023-08-11T09:43:14.034Z,3.20
2023-08-11T09:45:41.876Z,3.00
2023-08-11T09:48:09.782Z,3.80
2023-08-11T09:50:37.928Z,3.00
2023-08-11T09:53:06.353Z,2.40
2023-08-11T09:55:34.620Z,2.00
2023-08-11T09:58:02.610Z,2.60
2023-08-11T10:00:31.980Z,3.00
2023-08-11T10:03:00.029Z,3.00
2023-08-11T10:05:30.583Z,4.00
2023-08-11T10:07:58.811Z,1.60
2023-08-11T10:10:28.490Z,3.00
2023-08-11T10:12:56.353Z,2.00
2023-08-11T10:15:24.256Z,2.00
2023-08-11T10:17:52.514Z,3.00
2023-08-11T10:20:20.537Z,3.00
2023-08-11T10:22:48.355Z,4.00
2023-08-11T10:25:16.451Z,2.20
2023-08-11T10:27:44.383Z,3.20
2023-08-11T10:30:12.315Z,3.00
2023-08-11T10:32:40.366Z,3.20
2023-08-11T10:35:08.438Z,3.00
2023-08-11T10:37:37.272Z,1.60
2023-08-11T10:40:05.218Z,4.00
2023-08-11T10:42:33.176Z,4.00
2023-08-11T10:45:01.024Z,3.40
2023-08-11T10:47:28.895Z,3.60
2023-08-11T10:49:56.745Z,3.00
2023-08-11T10:52:24.526Z,4.00
2023-08-11T10:54:52.669Z,4.00
2023-08-11T10:57:22.007Z,3.80
2023-08-11T10:59:49.827Z,3.00
2023-08-11T11:02:17.949Z,3.60
2023-08-11T11:04:46.061Z,4.00
2023-08-11T11:07:14.643Z,4.40
2023-08-11T11:09:42.555Z,3.00
2023-08-11T11:12:11.871Z,3.80
2023-08-11T11:14:39.928Z,4.00
2023-08-11T11:17:07.932Z,2.80
2023-08-11T11:19:37.021Z,4.00
2023-08-11T11:22:05.385Z,4.00
2023-08-11T11:24:33.744Z,4.40
2023-08-11T11:27:01.552Z,3.20
2023-08-11T11:29:29.890Z,3.40
2023-08-11T11:32:01.794Z,4.00
2023-08-11T11:34:31.102Z,2.80
2023-08-11T11:36:58.777Z,3.40
2023-08-11T11:39:26.778Z,3.80
2023-08-11T11:41:54.566Z,3.80
2023-08-11T11:44:22.342Z,3.80
2023-08-11T11:46:50.688Z,3.80
2023-08-11T11:49:29.310Z,4.00
2023-08-11T11:51:57.889Z,4.00
2023-08-11T11:54:26.440Z,4.00
2023-08-11T11:57:04.301Z,4.00
2023-08-11T11:59:32.858Z,3.20
2023-08-11T12:02:01.093Z,3.00
2023-08-11T12:04:28.927Z,4.60
2023-08-11T12:06:57.365Z,3.00
2023-08-11T12:09:25.090Z,4.00
2023-08-11T12:11:53.186Z,3.80
2023-08-11T12:14:21.122Z,2.80
2023-08-11T12:16:49.712Z,0.80
2023-08-11T12:19:17.627Z,3.80
2023-08-11T12:21:45.525Z,4.80
2023-08-11T12:24:13.223Z,2.80
2023-08-11T12:26:40.944Z,3.40
2023-08-11T12:29:09.330Z,4.00
2023-08-11T12:31:37.515Z,3.00
2023-08-11T12:34:05.244Z,4.20
2023-08-11T12:36:33.195Z,3.20
2023-08-11T12:39:00.970Z,2.60
2023-08-11T12:41:28.920Z,3.20
2023-08-11T12:43:56.915Z,3.20
2023-08-11T12:46:24.793Z,3.00
2023-08-11T12:48:52.888Z,3.40
2023-08-11T12:51:21.116Z,3.20
2023-08-11T12:53:49.065Z,3.00
2023-08-11T12:56:17.040Z,3.60
2023-08-11T12:58:44.925Z,4.20
2023-08-11T13:01:14.426Z,4.00
2023-08-11T13:03:44.234Z,4.00
2023-08-11T13:06:12.536Z,3.80
2023-08-11T13:08:40.578Z,5.60
2023-08-11T13:11:08.441Z,4.00
2023-08-11T13:13:36.406Z,4.00
2023-08-11T13:16:04.273Z,4.00
2023-08-11T13:18:32.533Z,2.00
2023-08-11T13:21:00.670Z,4.00
2023-08-11T13:23:30.487Z,3.00
2023-08-11T13:25:58.488Z,4.00
2023-08-11T13:28:26.364Z,4.00
2023-08-11T13:30:59.969Z,4.80
2023-08-11T13:33:30.022Z,3.00
2023-08-11T13:35:57.969Z,4.00
2023-08-11T13:38:27.764Z,3.00
2023-08-11T13:41:08.106Z,5.00
2023-08-11T13:43:36.007Z,3.20
2023-08-11T13:46:03.980Z,4.00
2023-08-11T13:48:31.976Z,4.40
2023-08-11T13:50:59.958Z,3.00
2023-08-11T13:53:27.856Z,3.80
2023-08-11T13:55:55.780Z,4.00
2023-08-11T13:58:24.215Z,5.00
2023-08-11T14:00:53.241Z,5.00
2023-08-11T14:03:23.628Z,5.00
2023-08-11T14:05:51.378Z,5.20
2023-08-11T14:08:20.850Z,5.00
2023-08-11T14:10:48.904Z,4.20
2023-08-11T14:13:17.165Z,4.40
2023-08-11T14:15:46.253Z,5.80
2023-08-11T14:18:14.494Z,6.00
2023-08-11T14:20:42.467Z,3.80
2023-08-11T14:23:10.350Z,4.00
2023-08-11T14:25:38.321Z,5.40
2023-08-11T14:28:06.282Z,3.40
2023-08-11T14:30:34.218Z,4.60
2023-08-11T14:33:02.088Z,4.80
2023-08-11T14:35:29.998Z,2.80
2023-08-11T14:37:57.861Z,5.80
2023-08-11T14:40:26.487Z,4.00
2023-08-11T14:42:54.342Z,3.60
2023-08-11T14:45:22.126Z,6.00
2023-08-11T14:47:49.962Z,5.20
2023-08-11T14:50:17.891Z,5.20
2023-08-11T14:52:46.347Z,2.00
2023-08-11T14:55:14.241Z,4.20
2023-08-11T14:57:42.630Z,5.00
2023-08-11T15:00:10.810Z,5.40
2023-08-11T15:02:38.980Z,6.20
2023-08-11T15:05:08.301Z,5.80
2023-08-11T15:07:36.119Z,6.40
2023-08-11T15:10:04.443Z,4.00
2023-08-11T15:12:32.334Z,5.20
2023-08-11T15:15:00.255Z,5.20
2023-08-11T15:17:28.881Z,4.80
2023-08-11T15:19:57.105Z,3.20
2023-08-11T15:22:25.060Z,4.00
2023-08-11T15:24:53.120Z,5.00
2023-08-11T15:27:22.349Z,5.00
2023-08-11T15:29:51.178Z,4.20
2023-08-11T15:32:19.574Z,4.80
2023-08-11T15:34:47.349Z,3.00
2023-08-11T15:37:15.162Z,5.00
2023-08-11T15:39:43.136Z,2.00
2023-08-11T15:42:11.791Z,5.60
2023-08-11T15:44:39.834Z,5.00
2023-08-11T15:47:07.757Z,4.00
2023-08-11T15:49:35.549Z,4.80
2023-08-11T15:52:03.422Z,5.00
2023-08-11T15:54:31.731Z,5.80
2023-08-11T15:56:59.722Z,5.20
2023-08-11T15:59:27.733Z,4.60
2023-08-11T16:02:14.756Z,5.00
2023-08-11T16:04:43.050Z,6.00
2023-08-11T16:07:10.935Z,5.20
2023-08-11T16:09:38.746Z,5.60
2023-08-11T16:12:06.572Z,4.40
2023-08-11T16:14:34.450Z,6.00
2023-08-11T16:17:02.564Z,5.00
2023-08-11T16:19:30.490Z,5.60
2023-08-11T16:21:58.505Z,5.80
2023-08-11T16:24:26.682Z,5.60
2023-08-11T16:26:54.589Z,5.00
2023-08-11T16:29:23.181Z,5.00
2023-08-11T16:31:52.616Z,6.60
2023-08-11T16:34:20.515Z,5.00
2023-08-11T16:36:48.418Z,5.80
2023-08-11T16:39:16.281Z,6.00
2023-08-11T16:41:44.318Z,5.00
2023-08-11T16:44:12.536Z,6.00
2023-08-11T16:46:40.849Z,6.00
2023-08-11T16:49:08.684Z,4.20
2023-08-11T16:51:36.597Z,2.80
2023-08-11T16:54:04.750Z,6.20
2023-08-11T16:56:32.572Z,6.00
2023-08-11T16:59:00.513Z,4.80
2023-08-11T17:01:28.536Z,6.00
2023-08-11T17:03:56.649Z,5.40
2023-08-11T17:06:25.325Z,5.00
2023-08-11T17:08:53.312Z,5.00
2023-08-11T17:11:21.234Z,5.00
2023-08-11T17:13:49.638Z,6.00
2023-08-11T17:16:17.709Z,5.20
2023-08-11T17:18:46.469Z,5.60
2023-08-11T17:21:20.899Z,5.80
2023-08-11T17:23:48.870Z,5.00
2023-08-11T17:26:17.251Z,6.00
2023-08-11T17:28:45.621Z,5.80
2023-08-11T17:31:14.530Z,6.00
2023-08-11T17:33:42.489Z,6.00
2023-08-11T17:36:10.354Z,8.00
2023-08-11T17:38:38.362Z,5.00
2023-08-11T17:41:07.078Z,8.00
2023-08-11T17:43:34.910Z,8.40
2023-08-11T17:46:03.008Z,6.40
2023-08-11T17:48:30.930Z,7.60
2023-08-11T17:50:58.768Z,8.00
2023-08-11T17:53:26.711Z,5.00
2023-08-11T17:55:55.333Z,5.40
2023-08-11T17:58:23.162Z,6.20
2023-08-11T18:00:51.132Z,7.00
2023-08-11T18:03:19.147Z,7.60
2023-08-11T18:05:47.100Z,7.00
2023-08-11T18:08:15.266Z,6.80
2023-08-11T18:10:43.154Z,5.20
2023-08-11T18:13:10.951Z,5.40
2023-08-11T18:15:38.909Z,4.20
2023-08-11T18:18:06.899Z,7.00
2023-08-11T18:20:35.265Z,7.00
2023-08-11T18:23:03.240Z,5.60
2023-08-11T18:25:31.172Z,6.00
2023-08-11T18:27:59.067Z,5.60
2023-08-11T18:30:26.817Z,6.00
2023-08-11T18:32:55.247Z,6.00
2023-08-11T18:35:23.081Z,7.00
2023-08-11T18:37:50.780Z,6.40
2023-08-11T18:40:18.678Z,4.60
2023-08-11T18:42:46.419Z,6.60
2023-08-11T18:45:15.012Z,6.60
2023-08-11T18:47:42.973Z,5.80
2023-08-11T18:50:10.834Z,6.00
2023-08-11T18:52:38.784Z,6.80
2023-08-11T18:55:06.992Z,8.00
2023-08-11T18:57:35.877Z,7.00
2023-08-11T19:00:06.342Z,6.40
2023-08-11T19:02:34.297Z,7.80
2023-08-11T19:05:02.190Z,8.40
2023-08-11T19:07:30.017Z,7.20
2023-08-11T19:09:59.489Z,8.20
2023-08-11T19:12:27.426Z,7.40
2023-08-11T19:14:55.425Z,9.00
2023-08-11T19:17:23.763Z,9.60
2023-08-11T19:19:51.653Z,6.60
2023-08-11T19:22:21.192Z,9.00
2023-08-11T19:24:49.110Z,7.60
2023-08-11T19:27:17.017Z,9.00
2023-08-11T19:29:44.974Z,10.20
2023-08-11T19:32:13.492Z,9.20
2023-08-11T19:34:41.702Z,9.40
2023-08-11T19:37:09.630Z,9.20
2023-08-11T19:39:38.660Z,9.00
2023-08-11T19:42:06.608Z,9.20
2023-08-11T19:44:35.631Z,7.00
2023-08-11T19:47:07.002Z,10.00
2023-08-11T19:49:34.979Z,8.60
2023-08-11T19:52:02.822Z,7.60
2023-08-11T19:54:30.678Z,12.20
2023-08-11T19:56:58.598Z,10.00
2023-08-11T19:59:27.058Z,9.40
2023-08-11T20:01:55.344Z,9.00
2023-08-11T20:04:24.581Z,10.00
2023-08-11T20:06:52.531Z,9.80
2023-08-11T20:09:20.692Z,8.60
2023-08-11T20:11:48.594Z,9.80
2023-08-11T20:14:17.105Z,10.80
2023-08-11T20:16:45.046Z,11.20
2023-08-11T20:19:12.809Z,9.60
2023-08-11T20:21:40.790Z,10.00
2023-08-11T20:24:09.147Z,8.00
2023-08-11T20:26:37.162Z,9.00
2023-08-11T20:29:07.799Z,8.80
2023-08-11T20:31:35.717Z,9.00
2023-08-11T20:34:03.589Z,9.00
2023-08-11T20:36:32.195Z,8.80
2023-08-11T20:38:59.004Z,10.00
2023-08-11T20:41:26.909Z,9.20
2023-08-11T20:43:54.821Z,8.60
2023-08-11T20:46:23.215Z,9.00
2023-08-11T20:48:52.143Z,9.60
2023-08-11T20:51:21.196Z,9.00
2023-08-11T20:53:49.166Z,11.20
2023-08-11T20:56:17.029Z,10.20
2023-08-11T20:58:44.940Z,11.60
2023-08-11T21:01:13.562Z,10.00
2023-08-11T21:03:41.345Z,9.20
2023-08-11T21:06:09.149Z,11.60
2023-08-11T21:08:37.045Z,10.20
2023-08-11T21:11:04.830Z,9.40
2023-08-11T21:13:33.059Z,12.00
2023-08-11T21:16:00.949Z,12.00
2023-08-11T21:18:28.828Z,11.60
2023-08-11T21:20:56.640Z,9.00
2023-08-11T21:23:24.591Z,11.80
2023-08-11T21:25:54.182Z,11.00
2023-08-11T21:28:22.308Z,12.00
2023-08-11T21:30:52.112Z,10.80
2023-08-11T21:33:23.290Z,11.00
2023-08-11T21:35:51.062Z,11.80
2023-08-11T21:38:19.691Z,10.20
2023-08-11T21:40:47.504Z,12.20
2023-08-11T21:43:16.201Z,8.40
2023-08-11T21:45:43.986Z,5.20
2023-08-11T21:48:12.044Z,11.00
2023-08-11T21:50:40.389Z,11.60
2023-08-11T21:53:21.587Z,12.00
2023-08-11T21:55:51.643Z,9.40
2023-08-11T21:58:19.537Z,11.00
2023-08-11T22:00:47.443Z,11.00
2023-08-11T22:03:15.378Z,12.00
2023-08-11T22:05:43.373Z,11.80
2023-08-11T22:08:11.375Z,9.00
2023-08-11T22:10:39.284Z,8.00
2023-08-11T22:13:07.049Z,12.00
2023-08-11T22:15:34.872Z,12.00
2023-08-11T22:18:02.805Z,11.20
2023-08-11T22:20:30.550Z,12.40
2023-08-11T22:22:58.304Z,11.00
2023-08-11T22:25:26.230Z,8.00
2023-08-11T22:27:53.916Z,11.00
2023-08-11T22:30:21.692Z,8.00
2023-08-11T22:32:49.972Z,10.40
2023-08-11T22:35:17.682Z,9.00
2023-08-11T22:37:45.371Z,10.80
2023-08-11T22:40:13.192Z,12.00
2023-08-11T22:42:41.015Z,8.40
2023-08-11T22:45:08.708Z,14.20
2023-08-11T22:47:36.489Z,10.60
2023-08-11T22:50:04.741Z,12.00
2023-08-11T22:52:32.416Z,11.20
2023-08-11T22:55:00.451Z,13.20
2023-08-11T22:57:28.164Z,9.00
2023-08-11T22:59:55.946Z,13.20
2023-08-11T23:02:24.471Z,14.60
2023-08-11T23:04:55.384Z,13.20
2023-08-11T23:07:23.906Z,13.40
2023-08-11T23:09:51.778Z,14.00
2023-08-11T23:12:19.427Z,14.60
2023-08-11T23:14:47.616Z,15.00
2023-08-11T23:17:16.010Z,13.80
2023-08-11T23:19:43.773Z,12.80
2023-08-11T23:22:11.423Z,12.20
2023-08-11T23:24:39.077Z,13.00
2023-08-11T23:27:06.709Z,10.00
2023-08-11T23:29:34.402Z,13.00
2023-08-11T23:32:02.246Z,13.00
2023-08-11T23:34:29.850Z,13.00
2023-08-11T23:36:57.490Z,14.20
2023-08-11T23:39:25.387Z,12.20
2023-08-11T23:41:53.288Z,16.00
2023-08-11T23:44:20.948Z,16.40
2023-08-11T23:46:48.643Z,14.00
2023-08-11T23:49:16.389Z,18.00
2023-08-11T23:51:44.353Z,15.20
2023-08-11T23:54:12.044Z,15.20
2023-08-11T23:56:39.670Z,15.00
2023-08-11T23:59:07.618Z,16.20
